Time;durP1;ratioP1;P1;durP2;ratioP2;P2;SDS_P1;SDS_P2;PMS_P1;PMS_P2;Temp;Humidity;BMP_temperature;BMP_pressure;BME280_temperature;BME280_humidity;BME280_pressure;Samples;Min_cycle;Max_cycle;Signal;HPM_P1;HPM_P2
2023/01/25 00:02:17;;;;;;;21.67;15.25;;;0.40;99.90;;;;;;5004871;28;20172;-56
2023/01/25 00:04:42;;;;;;;23.73;16.40;;;0.40;99.90;;;;;;5004142;28;20029;-55
2023/01/25 00:07:08;;;;;;;22.08;15.82;;;0.40;99.90;;;;;;5005717;28;20105;-54
2023/01/25 00:09:33;;;;;;;22.10;14.93;;;0.40;99.90;;;;;;5005443;28;20518;-52
2023/01/25 00:11:59;;;;;;;26.70;17.02;;;0.30;99.90;;;;;;5004960;28;20168;-53
2023/01/25 00:14:24;;;;;;;26.42;16.05;;;0.30;99.90;;;;;;5006285;28;20030;-53
2023/01/25 00:16:50;;;;;;;22.83;15.40;;;0.30;99.90;;;;;;5007476;28;20104;-56
2023/01/25 00:19:16;;;;;;;26.35;16.60;;;0.30;99.90;;;;;;5009777;28;20053;-53
2023/01/25 00:21:42;;;;;;;21.88;15.95;;;0.40;99.90;;;;;;5008357;28;20018;-53
2023/01/25 00:24:10;;;;;;;23.55;15.93;;;0.30;99.90;;;;;;5010654;28;20026;-54
2023/01/25 00:26:36;;;;;;;25.17;15.02;;;0.30;99.90;;;;;;5006746;28;20030;-55
2023/01/25 00:29:02;;;;;;;21.42;15.75;;;0.40;99.90;;;;;;5009396;28;20391;-54
2023/01/25 00:31:33;;;;;;;23.83;16.10;;;0.30;99.90;;;;;;5010389;28;20025;-52
2023/01/25 00:34:24;;;;;;;22.70;16.00;;;0.30;99.90;;;;;;5010678;28;20055;-52
2023/01/25 00:36:50;;;;;;;25.15;16.48;;;0.30;99.90;;;;;;5007409;28;20072;-55
2023/01/25 00:39:16;;;;;;;23.35;16.17;;;0.30;99.90;;;;;;5009471;28;20018;-52
2023/01/25 00:41:42;;;;;;;24.38;16.38;;;0.30;99.90;;;;;;5010198;28;20015;-52
2023/01/25 00:44:08;;;;;;;23.60;16.50;;;0.20;99.90;;;;;;5007999;28;20026;-56
2023/01/25 00:46:34;;;;;;;23.35;15.88;;;0.20;99.90;;;;;;5008526;28;20040;-55
2023/01/25 00:48:59;;;;;;;27.65;16.50;;;0.20;99.90;;;;;;5009898;28;20346;-55
2023/01/25 00:51:25;;;;;;;27.65;17.67;;;0.20;99.90;;;;;;5007256;28;20488;-55
2023/01/25 00:53:50;;;;;;;27.00;17.65;;;0.30;99.90;;;;;;5008124;28;20191;-52
2023/01/25 00:56:16;;;;;;;24.80;15.80;;;0.30;99.90;;;;;;5010052;28;20515;-52
2023/01/25 00:58:42;;;;;;;23.33;15.38;;;0.20;99.90;;;;;;5009264;28;20432;-54
2023/01/25 01:01:08;;;;;;;23.67;15.25;;;0.20;99.90;;;;;;5010591;28;20566;-58
2023/01/25 01:03:33;;;;;;;25.80;16.60;;;0.10;99.90;;;;;;5006548;28;20057;-55
2023/01/25 01:06:03;;;;;;;24.88;16.35;;;0.10;99.90;;;;;;5010035;28;20049;-53
2023/01/25 01:08:28;;;;;;;24.42;16.38;;;0.20;99.90;;;;;;5006071;28;20429;-53
2023/01/25 01:11:01;;;;;;;21.58;15.13;;;0.20;99.90;;;;;;5010389;28;20060;-56
2023/01/25 01:13:28;;;;;;;22.73;14.80;;;0.10;99.90;;;;;;5008399;28;20068;-57
2023/01/25 01:15:54;;;;;;;24.15;14.73;;;0.10;99.90;;;;;;5009875;28;20045;-56
2023/01/25 01:18:19;;;;;;;26.13;16.77;;;0.20;99.90;;;;;;5008197;28;20026;-55
2023/01/25 01:20:52;;;;;;;26.30;15.60;;;0.10;99.90;;;;;;5008934;28;20843;-52
2023/01/25 01:23:18;;;;;;;23.42;15.15;;;0.10;99.90;;;;;;5004191;28;20053;-56
2023/01/25 01:25:44;;;;;;;23.00;15.25;;;0.10;99.90;;;;;;5009229;28;20100;-56
2023/01/25 01:28:10;;;;;;;21.42;14.82;;;0.10;99.90;;;;;;5009864;28;20030;-57
2023/01/25 01:30:38;;;;;;;27.90;16.20;;;0.10;99.90;;;;;;5008400;28;20092;-53
2023/01/25 01:33:05;;;;;;;22.50;16.00;;;0.00;99.90;;;;;;5008225;28;20022;-55
2023/01/25 01:35:31;;;;;;;21.33;14.57;;;-0.10;99.90;;;;;;5007125;28;20030;-57
2023/01/25 01:37:56;;;;;;;26.80;16.50;;;0.00;99.90;;;;;;5006868;28;20125;-55
2023/01/25 01:40:23;;;;;;;22.55;16.25;;;-0.10;99.90;;;;;;5008721;28;20602;-55
2023/01/25 01:42:59;;;;;;;25.40;16.30;;;-0.10;99.90;;;;;;5008171;28;20023;-54
2023/01/25 01:45:46;;;;;;;22.85;15.60;;;0.00;99.90;;;;;;5007216;28;20044;-56
2023/01/25 01:48:49;;;;;;;25.98;16.17;;;0.00;99.90;;;;;;5008709;28;20026;-56
2023/01/25 01:51:38;;;;;;;28.83;17.20;;;0.00;99.90;;;;;;5008441;28;20014;-55
2023/01/25 01:54:17;;;;;;;30.27;17.65;;;0.00;99.90;;;;;;5009402;28;20022;-55
2023/01/25 01:56:43;;;;;;;23.45;15.60;;;-0.10;99.90;;;;;;5008339;28;20029;-57
2023/01/25 01:59:09;;;;;;;22.67;15.73;;;-0.10;99.90;;;;;;5005727;28;20018;-55
2023/01/25 02:01:34;;;;;;;27.23;16.38;;;-0.10;99.90;;;;;;5005167;28;20072;-52
2023/01/25 02:04:01;;;;;;;24.92;16.23;;;-0.10;99.90;;;;;;5006867;28;20476;-56
2023/01/25 02:06:39;;;;;;;24.00;15.73;;;-0.10;99.90;;;;;;5008872;28;20034;-55
2023/01/25 02:09:05;;;;;;;24.92;15.80;;;-0.10;99.90;;;;;;5010213;28;20028;-53
2023/01/25 02:11:32;;;;;;;30.40;16.73;;;-0.10;99.90;;;;;;5007678;28;20021;-56
2023/01/25 02:13:58;;;;;;;26.92;17.33;;;-0.10;99.90;;;;;;5006069;28;20511;-56
2023/01/25 02:16:27;;;;;;;25.95;16.35;;;-0.10;99.90;;;;;;5005721;28;20023;-57
2023/01/25 02:18:55;;;;;;;28.40;17.67;;;-0.10;99.90;;;;;;5006673;28;20511;-56
2023/01/25 02:21:23;;;;;;;24.90;16.17;;;-0.20;99.90;;;;;;5007667;28;20025;-55
2023/01/25 02:24:09;;;;;;;25.27;16.13;;;-0.20;99.90;;;;;;5003296;28;20440;-57
2023/01/25 02:26:36;;;;;;;28.90;15.88;;;-0.20;99.90;;;;;;5007566;28;20033;-54
2023/01/25 02:29:04;;;;;;;29.13;16.33;;;-0.10;99.90;;;;;;5006907;28;20034;-54
2023/01/25 02:31:30;;;;;;;25.50;17.10;;;-0.10;99.90;;;;;;5007003;28;20117;-57
2023/01/25 02:33:56;;;;;;;28.10;16.58;;;-0.20;99.90;;;;;;5007151;28;20116;-54
2023/01/25 02:36:27;;;;;;;25.27;16.42;;;-0.20;99.90;;;;;;5006726;28;20022;-56
2023/01/25 02:39:17;;;;;;;22.38;15.70;;;-0.20;99.90;;;;;;5005233;28;20022;-55
2023/01/25 02:41:46;;;;;;;20.50;14.55;;;-0.20;99.90;;;;;;5006850;28;20015;-57
2023/01/25 02:44:25;;;;;;;24.90;16.35;;;-0.20;99.90;;;;;;5007784;28;20018;-58
2023/01/25 02:46:51;;;;;;;23.25;15.05;;;-0.30;99.90;;;;;;5007590;28;20014;-55
2023/01/25 02:49:17;;;;;;;25.63;16.00;;;-0.30;99.90;;;;;;5007642;28;20305;-56
2023/01/25 02:51:48;;;;;;;20.48;15.07;;;-0.30;99.90;;;;;;5006723;28;20064;-55
2023/01/25 02:54:16;;;;;;;28.02;15.55;;;-0.30;99.90;;;;;;5008298;28;20026;-56
2023/01/25 02:56:42;;;;;;;23.73;15.05;;;-0.20;99.90;;;;;;5007238;28;20532;-56
2023/01/25 02:59:08;;;;;;;21.67;15.02;;;-0.30;99.90;;;;;;5009094;28;20093;-55
2023/01/25 03:01:36;;;;;;;23.90;14.65;;;-0.30;99.90;;;;;;5008356;28;20520;-53
2023/01/25 03:04:02;;;;;;;25.80;15.30;;;-0.30;99.90;;;;;;5006487;28;20584;-56
2023/01/25 03:06:27;;;;;;;27.50;15.27;;;-0.30;99.90;;;;;;5006878;28;20112;-56
2023/01/25 03:08:53;;;;;;;24.67;15.20;;;-0.30;99.90;;;;;;5006764;28;20101;-56
2023/01/25 03:11:18;;;;;;;24.30;15.55;;;-0.30;99.90;;;;;;5008380;28;20021;-55
2023/01/25 03:13:44;;;;;;;22.30;14.50;;;-0.40;99.90;;;;;;5005877;28;20438;-54
2023/01/25 03:16:11;;;;;;;21.92;13.68;;;-0.40;99.90;;;;;;5008163;28;20026;-57
2023/01/25 03:18:38;;;;;;;20.42;12.68;;;-0.40;99.90;;;;;;5006873;28;20044;-56
2023/01/25 03:21:16;;;;;;;20.10;12.93;;;-0.40;99.90;;;;;;5003813;28;20508;-56
2023/01/25 03:23:43;;;;;;;22.77;13.93;;;-0.50;99.90;;;;;;5005743;28;20524;-55
2023/01/25 03:26:18;;;;;;;21.60;13.82;;;-0.50;99.90;;;;;;5004698;28;20496;-57
2023/01/25 03:28:43;;;;;;;21.75;14.18;;;-0.50;99.90;;;;;;5004214;28;20030;-53
2023/01/25 03:31:12;;;;;;;22.05;15.13;;;-0.50;99.90;;;;;;5007756;28;20132;-56
2023/01/25 03:33:38;;;;;;;20.90;13.63;;;-0.50;99.90;;;;;;5005759;28;20062;-57
2023/01/25 03:36:04;;;;;;;23.58;13.85;;;-0.50;99.90;;;;;;5002666;28;20481;-56
2023/01/25 03:38:30;;;;;;;19.88;13.18;;;-0.50;99.90;;;;;;5007398;28;20627;-54
2023/01/25 03:40:56;;;;;;;22.65;13.57;;;-0.50;99.90;;;;;;5006762;28;20104;-58
2023/01/25 03:43:22;;;;;;;22.20;13.20;;;-0.50;99.90;;;;;;5005986;28;20045;-56
2023/01/25 03:45:55;;;;;;;20.83;13.25;;;-0.50;99.90;;;;;;5002824;28;20065;-57
2023/01/25 03:48:21;;;;;;;21.17;13.35;;;-0.50;99.90;;;;;;5005736;28;20500;-55
2023/01/25 03:50:56;;;;;;;23.23;13.98;;;-0.40;99.90;;;;;;5006702;28;20048;-57
2023/01/25 03:53:29;;;;;;;20.40;13.38;;;-0.40;99.90;;;;;;5004904;28;20040;-56
2023/01/25 03:56:00;;;;;;;22.88;13.48;;;-0.40;99.90;;;;;;5003553;28;20022;-56
2023/01/25 03:58:27;;;;;;;18.33;11.90;;;-0.40;99.90;;;;;;5004592;28;20030;-54
2023/01/25 04:00:58;;;;;;;19.13;12.20;;;-0.50;99.90;;;;;;5005974;28;20037;-56
2023/01/25 04:03:24;;;;;;;19.55;11.93;;;-0.60;99.90;;;;;;5000697;28;20031;-57
2023/01/25 04:05:51;;;;;;;19.85;11.57;;;-0.60;99.90;;;;;;5003221;28;20404;-53
2023/01/25 04:08:17;;;;;;;21.65;12.70;;;-0.60;99.90;;;;;;5004925;28;20531;-56
2023/01/25 04:10:42;;;;;;;19.85;12.38;;;-0.60;99.90;;;;;;5004301;28;20039;-56
2023/01/25 04:13:08;;;;;;;18.45;11.77;;;-0.60;99.90;;;;;;5004597;28;20037;-57
2023/01/25 04:15:34;;;;;;;21.85;12.15;;;-0.60;99.90;;;;;;5003431;28;20443;-54
2023/01/25 04:18:00;;;;;;;25.10;12.65;;;-0.70;99.90;;;;;;5005931;28;20022;-56
2023/01/25 04:20:26;;;;;;;20.45;13.23;;;-0.70;99.90;;;;;;5004972;28;20385;-54
2023/01/25 04:22:51;;;;;;;22.33;12.55;;;-0.70;99.90;;;;;;5007011;28;20073;-55
2023/01/25 04:25:17;;;;;;;21.83;12.75;;;-0.70;99.90;;;;;;5004164;28;20133;-55
2023/01/25 04:27:43;;;;;;;23.15;13.45;;;-0.70;99.90;;;;;;5006386;28;20037;-58
2023/01/25 04:30:09;;;;;;;19.65;11.80;;;-0.70;99.90;;;;;;5028405;22;20049;-58
2023/01/25 04:32:35;;;;;;;23.02;12.13;;;-0.70;99.90;;;;;;5016386;28;20068;-61
2023/01/25 04:35:01;;;;;;;23.75;12.82;;;-0.70;99.90;;;;;;5015539;28;20024;-58
2023/01/25 04:37:26;;;;;;;19.48;11.80;;;-0.70;99.90;;;;;;5016729;28;20026;-59
2023/01/25 04:39:52;;;;;;;22.40;13.25;;;-0.70;99.90;;;;;;5016238;28;20029;-58
2023/01/25 04:42:17;;;;;;;22.92;12.77;;;-0.70;99.90;;;;;;5018133;28;20100;-60
2023/01/25 04:44:43;;;;;;;22.77;12.65;;;-0.70;99.90;;;;;;5014731;28;20148;-61
2023/01/25 04:47:08;;;;;;;23.33;12.90;;;-0.70;99.90;;;;;;5016206;28;20033;-62
2023/01/25 04:49:34;;;;;;;25.98;13.60;;;-0.70;99.90;;;;;;5016354;28;20139;-60
2023/01/25 04:52:00;;;;;;;23.75;13.75;;;-0.70;99.90;;;;;;5018081;28;20509;-58
2023/01/25 04:54:25;;;;;;;24.10;12.80;;;-0.80;99.90;;;;;;5015769;28;20034;-59
2023/01/25 04:56:51;;;;;;;21.55;13.40;;;-0.80;99.90;;;;;;5016658;28;20104;-61
2023/01/25 04:59:16;;;;;;;23.80;13.90;;;-0.70;99.90;;;;;;5018186;28;20049;-59
2023/01/25 05:01:42;;;;;;;25.77;13.60;;;-0.80;99.90;;;;;;5017212;28;20089;-58
2023/01/25 05:04:07;;;;;;;25.48;14.68;;;-0.80;99.90;;;;;;5020169;28;20056;-57
2023/01/25 05:06:33;;;;;;;25.70;14.68;;;-0.70;99.90;;;;;;5020865;28;20068;-58
2023/01/25 05:08:59;;;;;;;26.90;15.88;;;-0.70;99.90;;;;;;5020754;28;20402;-57
2023/01/25 05:11:24;;;;;;;25.67;15.35;;;-0.80;99.90;;;;;;5019885;28;20037;-55
2023/01/25 05:13:50;;;;;;;23.85;14.68;;;-0.80;99.90;;;;;;5020838;28;20030;-58
2023/01/25 05:16:16;;;;;;;24.55;14.85;;;-0.80;99.90;;;;;;5020996;28;20020;-59
2023/01/25 05:18:42;;;;;;;25.48;15.15;;;-0.80;99.90;;;;;;5020142;28;20022;-59
2023/01/25 05:21:56;;;;;;;22.95;14.10;;;-0.80;99.90;;;;;;5020201;28;20032;-58
2023/01/25 05:23:56;;;;;;;23.50;12.70;;;-0.80;99.90;;;;;;5019416;28;20403;-60
2023/01/25 05:29:05;;;;;;;21.17;13.25;;;-0.80;99.90;;;;;;5020301;28;20056;-56
2023/01/25 05:31:31;;;;;;;24.00;14.18;;;-0.90;99.90;;;;;;5019373;28;20034;-60
2023/01/25 05:33:56;;;;;;;24.77;13.82;;;-0.90;99.90;;;;;;5021045;28;20060;-59
2023/01/25 05:36:22;;;;;;;23.38;13.38;;;-0.90;99.90;;;;;;5020285;28;20041;-60
2023/01/25 05:38:47;;;;;;;23.42;13.95;;;-0.90;99.90;;;;;;5019398;28;20030;-57
2023/01/25 05:41:13;;;;;;;20.90;13.15;;;-0.90;99.90;;;;;;5018824;28;20105;-57
2023/01/25 05:43:38;;;;;;;22.48;13.98;;;-0.90;99.90;;;;;;5020935;28;20058;-61
2023/01/25 05:46:04;;;;;;;21.85;13.30;;;-0.90;99.90;;;;;;5018686;28;20026;-60
2023/01/25 05:48:30;;;;;;;20.90;13.40;;;-0.90;99.90;;;;;;5018618;28;20030;-57
2023/01/25 05:50:59;;;;;;;21.88;13.75;;;-1.00;99.90;;;;;;5019384;28;20024;-59
2023/01/25 05:53:25;;;;;;;19.65;13.25;;;-1.00;99.90;;;;;;5019279;28;20057;-63
2023/01/25 05:55:51;;;;;;;18.27;12.82;;;-1.10;99.90;;;;;;5018111;28;20117;-60
2023/01/25 05:58:16;;;;;;;23.55;15.52;;;-1.10;99.90;;;;;;5019975;28;20098;-61
2023/01/25 06:00:42;;;;;;;25.58;18.60;;;-1.10;99.90;;;;;;5019767;28;20022;-60
2023/01/25 06:03:07;;;;;;;31.38;24.30;;;-1.10;99.90;;;;;;5019880;28;20025;-62
2023/01/25 06:05:33;;;;;;;25.52;18.52;;;-1.10;99.90;;;;;;5017523;28;20057;-58
2023/01/25 06:07:59;;;;;;;25.95;19.13;;;-1.10;99.90;;;;;;5019687;28;20026;-59
2023/01/25 06:10:24;;;;;;;35.42;22.70;;;-1.10;99.90;;;;;;5019496;28;20025;-59
2023/01/25 06:12:50;;;;;;;52.63;35.53;;;-1.10;99.90;;;;;;5019701;28;20511;-58
2023/01/25 06:15:16;;;;;;;28.70;20.80;;;-1.10;99.90;;;;;;5018896;28;20022;-57
2023/01/25 06:17:41;;;;;;;23.95;19.88;;;-1.10;99.90;;;;;;5019977;28;20022;-60
2023/01/25 06:20:07;;;;;;;22.95;15.23;;;-1.10;99.90;;;;;;5018724;28;20045;-59
2023/01/25 06:22:33;;;;;;;20.40;15.20;;;-1.10;99.90;;;;;;5017151;28;20206;-61
2023/01/25 06:24:58;;;;;;;24.30;16.00;;;-1.10;99.90;;;;;;5017613;28;20112;-60
2023/01/25 06:27:24;;;;;;;24.33;14.93;;;-1.10;99.90;;;;;;5019660;28;20033;-60
2023/01/25 06:29:49;;;;;;;20.50;14.73;;;-1.10;99.90;;;;;;5018737;28;20396;-62
2023/01/25 06:32:15;;;;;;;23.58;15.05;;;-1.10;99.90;;;;;;5018142;28;20076;-60
2023/01/25 06:34:41;;;;;;;21.15;14.63;;;-1.10;99.90;;;;;;5019628;28;20129;-60
2023/01/25 06:37:06;;;;;;;19.75;14.27;;;-1.20;99.90;;;;;;5018907;28;20057;-59
2023/01/25 06:39:32;;;;;;;21.50;15.02;;;-1.20;99.90;;;;;;5017822;28;20552;-61
2023/01/25 06:41:57;;;;;;;22.75;14.98;;;-1.20;99.90;;;;;;5019720;28;20017;-61
2023/01/25 06:44:23;;;;;;;21.27;14.95;;;-1.20;99.90;;;;;;5019686;28;20021;-62
2023/01/25 06:46:48;;;;;;;20.63;13.95;;;-1.20;99.90;;;;;;5019609;28;20120;-62
2023/01/25 06:49:14;;;;;;;22.30;14.80;;;-1.20;99.90;;;;;;5018664;28;20041;-62
2023/01/25 06:51:39;;;;;;;24.42;15.70;;;-1.20;99.90;;;;;;5019520;28;20034;-62
2023/01/25 06:54:05;;;;;;;20.20;13.93;;;-1.20;99.90;;;;;;5017223;28;20025;-61
2023/01/25 06:56:31;;;;;;;23.15;14.50;;;-1.10;99.90;;;;;;5017961;28;20033;-62
2023/01/25 06:58:57;;;;;;;19.35;14.25;;;-1.10;99.90;;;;;;5015990;28;20033;-62
2023/01/25 07:01:26;;;;;;;22.30;14.77;;;-1.10;99.90;;;;;;5016206;28;20037;-61
2023/01/25 07:03:54;;;;;;;20.73;13.68;;;-1.10;99.90;;;;;;5018553;28;20025;-62
2023/01/25 07:06:20;;;;;;;19.23;13.35;;;-1.00;99.90;;;;;;5017712;28;20029;-60
2023/01/25 07:08:47;;;;;;;20.77;13.30;;;-1.10;99.90;;;;;;5019383;28;20033;-60
2023/01/25 07:11:13;;;;;;;24.13;13.98;;;-1.00;99.90;;;;;;5018696;28;20468;-62
2023/01/25 07:13:41;;;;;;;16.83;12.63;;;-1.10;99.90;;;;;;5016716;28;20426;-59
2023/01/25 07:16:10;;;;;;;21.00;13.55;;;-1.00;99.90;;;;;;5016546;28;20032;-62
2023/01/25 07:18:36;;;;;;;19.60;12.70;;;-1.00;99.90;;;;;;5016451;28;20127;-61
2023/01/25 07:21:19;;;;;;;18.80;12.63;;;-1.10;99.90;;;;;;5016721;28;20041;-60
2023/01/25 07:23:45;;;;;;;19.73;12.82;;;-1.10;99.90;;;;;;5017796;28;20036;-62
2023/01/25 07:26:15;;;;;;;17.77;12.50;;;-1.20;99.90;;;;;;5015060;28;20626;-62
2023/01/25 07:28:40;;;;;;;18.35;13.20;;;-1.20;99.90;;;;;;5014825;28;20188;-60
2023/01/25 07:31:07;;;;;;;22.00;12.95;;;-1.20;99.90;;;;;;5016867;28;20137;-61
2023/01/25 07:33:33;;;;;;;19.95;12.13;;;-1.20;99.90;;;;;;5017550;28;20034;-60
2023/01/25 07:36:06;;;;;;;18.33;12.43;;;-1.20;99.90;;;;;;5018535;28;20021;-59
2023/01/25 07:38:32;;;;;;;20.30;12.60;;;-1.10;99.90;;;;;;5017164;28;20022;-61
2023/01/25 07:40:58;;;;;;;21.75;13.77;;;-1.10;99.90;;;;;;5018543;28;20029;-61
2023/01/25 07:43:24;;;;;;;20.83;13.30;;;-1.00;99.90;;;;;;5018106;28;20030;-61
2023/01/25 07:45:50;;;;;;;22.45;14.25;;;-1.00;99.90;;;;;;5018029;28;20017;-60
2023/01/25 07:48:17;;;;;;;21.92;13.02;;;-1.10;99.90;;;;;;5017608;28;20053;-61
2023/01/25 07:50:48;;;;;;;19.17;13.00;;;-1.10;99.90;;;;;;5018053;28;20033;-62
2023/01/25 07:53:14;;;;;;;17.83;12.70;;;-1.10;99.90;;;;;;5017439;28;20026;-62
2023/01/25 07:55:40;;;;;;;21.20;13.57;;;-1.10;99.90;;;;;;5016822;28;20018;-61
2023/01/25 07:58:07;;;;;;;19.38;13.38;;;-1.10;99.90;;;;;;5016522;28;20032;-62
2023/01/25 08:00:32;;;;;;;21.25;13.68;;;-1.10;99.90;;;;;;5017237;28;20032;-61
2023/01/25 08:02:58;;;;;;;23.55;15.07;;;-1.10;99.90;;;;;;5018262;28;20026;-62
2023/01/25 08:05:24;;;;;;;23.75;14.85;;;-1.10;99.90;;;;;;5017645;28;20113;-61
2023/01/25 08:07:49;;;;;;;21.75;14.52;;;-1.10;99.90;;;;;;5017513;28;20034;-62
2023/01/25 08:10:15;;;;;;;22.05;15.02;;;-1.10;99.90;;;;;;5017749;28;20080;-60
2023/01/25 08:12:45;;;;;;;22.15;14.05;;;-1.10;99.90;;;;;;5018112;28;21739;-61
2023/01/25 08:15:11;;;;;;;20.15;14.10;;;-1.10;99.90;;;;;;5016138;28;20025;-61
2023/01/25 08:17:37;;;;;;;21.38;13.90;;;-1.10;99.90;;;;;;5017881;28;20540;-62
2023/01/25 08:20:03;;;;;;;23.38;14.95;;;-1.00;99.90;;;;;;5018146;28;20037;-62
2023/01/25 08:22:29;;;;;;;23.83;14.93;;;-1.00;99.90;;;;;;5016107;28;20026;-61
2023/01/25 08:24:55;;;;;;;23.58;15.20;;;-1.00;99.90;;;;;;5016592;28;20022;-61
2023/01/25 08:27:21;;;;;;;20.23;14.77;;;-1.00;99.90;;;;;;5018727;28;20117;-62
2023/01/25 08:29:49;;;;;;;24.48;16.40;;;-1.00;99.90;;;;;;5016917;28;20120;-61
2023/01/25 08:32:15;;;;;;;24.27;15.68;;;-1.00;99.90;;;;;;5017863;28;20045;-61
2023/01/25 08:34:40;;;;;;;23.20;15.20;;;-1.00;99.90;;;;;;5017156;28;20072;-61
2023/01/25 08:37:06;;;;;;;23.10;15.00;;;-1.00;99.90;;;;;;5019801;28;20022;-62
2023/01/25 08:39:31;;;;;;;23.83;15.27;;;-1.00;99.90;;;;;;5020802;28;20029;-62
2023/01/25 08:41:57;;;;;;;26.63;15.88;;;-1.00;99.90;;;;;;5020548;28;20034;-62
2023/01/25 08:44:24;;;;;;;18.90;13.82;;;-1.00;99.90;;;;;;5021441;28;20021;-62
2023/01/25 08:46:50;;;;;;;20.80;14.18;;;-1.00;99.90;;;;;;5020931;28;20480;-61
2023/01/25 08:49:16;;;;;;;22.63;15.30;;;-0.90;99.90;;;;;;5020740;28;20068;-62
2023/01/25 08:51:42;;;;;;;24.13;16.10;;;-1.00;99.90;;;;;;5020334;28;20034;-62
2023/01/25 08:54:10;;;;;;;22.92;15.52;;;-0.90;99.90;;;;;;5020430;28;20048;-62
2023/01/25 08:56:37;;;;;;;21.88;14.80;;;-0.90;99.90;;;;;;5019032;28;20100;-63
2023/01/25 08:59:04;;;;;;;23.52;14.95;;;-0.90;99.90;;;;;;5019647;28;20013;-65
2023/01/25 09:01:30;;;;;;;23.70;15.27;;;-0.90;99.90;;;;;;5021146;28;20017;-61
2023/01/25 09:03:55;;;;;;;23.60;16.50;;;-0.90;99.90;;;;;;5020970;28;20025;-61
2023/01/25 09:06:21;;;;;;;25.23;15.27;;;-0.90;99.90;;;;;;5020705;28;20033;-61
2023/01/25 09:08:47;;;;;;;22.38;16.23;;;-0.90;99.90;;;;;;5020682;28;20076;-62
2023/01/25 09:11:20;;;;;;;26.27;16.38;;;-0.90;99.90;;;;;;5021851;28;20026;-62
2023/01/25 09:13:47;;;;;;;26.42;16.58;;;-0.90;99.90;;;;;;5020139;28;20056;-61
2023/01/25 09:16:27;;;;;;;22.08;15.32;;;-0.90;99.90;;;;;;5020290;28;20032;-62
2023/01/25 09:18:53;;;;;;;24.13;15.20;;;-0.90;99.90;;;;;;5020367;28;20898;-60
2023/01/25 09:21:18;;;;;;;24.15;15.35;;;-0.90;99.90;;;;;;5021604;28;20022;-62
2023/01/25 09:23:48;;;;;;;24.70;16.52;;;-0.90;99.90;;;;;;5019571;28;20028;-62
2023/01/25 09:26:14;;;;;;;23.63;15.90;;;-0.90;99.90;;;;;;5019796;28;20443;-62
2023/01/25 09:28:41;;;;;;;25.42;16.33;;;-0.90;99.90;;;;;;5019391;28;20557;-63
2023/01/25 09:31:07;;;;;;;25.95;15.70;;;-0.90;99.90;;;;;;5020536;28;20036;-61
2023/01/25 09:33:34;;;;;;;23.73;15.60;;;-0.90;99.90;;;;;;5019193;28;20030;-60
2023/01/25 09:36:01;;;;;;;22.42;14.85;;;-0.90;99.90;;;;;;5020112;28;20512;-60
2023/01/25 09:38:26;;;;;;;26.83;16.30;;;-0.90;99.90;;;;;;5018179;28;20026;-62
2023/01/25 09:41:20;;;;;;;27.00;16.35;;;-0.90;99.90;;;;;;5018549;28;20082;-62
2023/01/25 09:44:06;;;;;;;27.10;16.45;;;-0.90;99.90;;;;;;5017894;28;20037;-62
2023/01/25 09:46:47;;;;;;;22.55;15.35;;;-0.90;99.90;;;;;;5020213;28;20374;-62
2023/01/25 09:49:16;;;;;;;23.48;15.13;;;-0.90;99.90;;;;;;5019179;28;20033;-63
2023/01/25 09:52:08;;;;;;;25.88;16.40;;;-0.90;99.90;;;;;;5018008;28;20164;-62
2023/01/25 09:54:41;;;;;;;23.30;14.55;;;-0.90;99.90;;;;;;5019033;28;20381;-63
2023/01/25 09:57:40;;;;;;;26.15;16.27;;;-0.90;99.90;;;;;;5019211;28;20076;-62
2023/01/25 10:00:28;;;;;;;26.33;16.13;;;-0.90;99.90;;;;;;4977092;28;20075;-61
2023/01/25 10:02:57;;;;;;;26.70;17.10;;;-0.90;99.90;;;;;;5008910;28;20188;-62
2023/01/25 10:05:27;;;;;;;30.33;18.05;;;-0.90;99.90;;;;;;5016301;28;20419;-63
2023/01/25 10:08:04;;;;;;;28.05;17.08;;;-0.90;99.90;;;;;;5018441;28;20037;-63
2023/01/25 10:10:38;;;;;;;30.20;17.52;;;-0.90;99.90;;;;;;5019108;28;20064;-63
2023/01/25 10:13:10;;;;;;;24.13;16.92;;;-0.90;99.90;;;;;;5019813;28;20026;-63
2023/01/25 10:15:42;;;;;;;29.77;18.23;;;-0.90;99.90;;;;;;5020024;28;20026;-64
2023/01/25 10:18:34;;;;;;;32.05;18.08;;;-0.90;99.90;;;;;;5019416;28;20561;-63
2023/01/25 10:21:16;;;;;;;29.95;18.45;;;-0.80;99.90;;;;;;5019361;28;20033;-63
2023/01/25 10:23:54;;;;;;;33.95;19.30;;;-0.80;99.90;;;;;;5019052;28;20055;-63
2023/01/25 10:26:31;;;;;;;33.25;19.88;;;-0.90;99.90;;;;;;5019171;28;20026;-61
2023/01/25 10:28:59;;;;;;;33.60;20.50;;;-0.90;99.90;;;;;;5018304;28;20117;-60
2023/01/25 10:31:37;;;;;;;31.48;19.77;;;-0.90;99.90;;;;;;5018949;28;20026;-62
2023/01/25 10:34:15;;;;;;;41.67;23.25;;;-0.90;99.90;;;;;;5017272;28;20094;-62
2023/01/25 10:36:43;;;;;;;37.90;22.05;;;-0.90;99.90;;;;;;5018512;28;20026;-62
2023/01/25 10:39:09;;;;;;;35.00;21.83;;;-0.90;99.90;;;;;;5017689;28;20045;-61
2023/01/25 10:41:40;;;;;;;36.53;21.95;;;-0.90;99.90;;;;;;5019820;28;20022;-62
2023/01/25 10:44:23;;;;;;;34.35;22.10;;;-0.80;99.90;;;;;;5016803;28;20033;-61
2023/01/25 10:47:11;;;;;;;35.67;21.98;;;-0.80;99.90;;;;;;5018996;28;20030;-61
2023/01/25 10:49:41;;;;;;;40.65;22.92;;;-0.80;99.90;;;;;;5019226;28;20033;-61
2023/01/25 10:52:18;;;;;;;40.53;24.70;;;-0.80;99.90;;;;;;5018575;28;20037;-62
2023/01/25 10:54:49;;;;;;;40.58;24.48;;;-0.80;99.90;;;;;;5017748;28;20128;-62
2023/01/25 10:57:19;;;;;;;37.50;22.80;;;-0.80;99.90;;;;;;5019436;28;20860;-63
2023/01/25 10:59:48;;;;;;;43.92;25.90;;;-0.80;99.90;;;;;;5018135;28;20029;-63
2023/01/25 11:02:37;;;;;;;39.83;24.52;;;-0.80;99.90;;;;;;5018905;28;20048;-63
2023/01/25 11:05:18;;;;;;;47.88;25.80;;;-0.80;99.90;;;;;;5018729;28;20025;-61
2023/01/25 11:07:45;;;;;;;38.58;23.35;;;-0.80;99.90;;;;;;5016379;28;20021;-61
2023/01/25 11:10:27;;;;;;;41.70;24.60;;;-0.70;99.90;;;;;;5017227;28;20041;-61
2023/01/25 11:13:15;;;;;;;43.88;26.52;;;-0.70;99.90;;;;;;5019507;28;20029;-62
2023/01/25 11:16:16;;;;;;;45.00;25.65;;;-0.70;99.90;;;;;;5017658;28;20025;-62
2023/01/25 11:18:53;;;;;;;41.00;24.25;;;-0.70;99.90;;;;;;4958850;28;20041;-63
2023/01/25 11:21:25;;;;;;;44.33;25.52;;;-0.70;99.90;;;;;;5019287;28;20430;-63
2023/01/25 11:24:03;;;;;;;45.50;26.38;;;-0.70;99.90;;;;;;5019421;28;20060;-62
2023/01/25 11:26:31;;;;;;;42.97;26.42;;;-0.70;99.90;;;;;;5018951;28;20021;-63
2023/01/25 11:29:16;;;;;;;42.67;27.75;;;-0.70;99.90;;;;;;5018008;28;20034;-63
2023/01/25 11:31:45;;;;;;;41.35;25.25;;;-0.70;99.90;;;;;;5017288;28;20034;-63
2023/01/25 11:34:16;;;;;;;39.50;24.30;;;-0.60;99.90;;;;;;5017824;28;20504;-62
2023/01/25 11:37:05;;;;;;;38.15;24.15;;;-0.70;99.90;;;;;;5017893;28;20029;-56
2023/01/25 11:39:43;;;;;;;47.15;29.58;;;-0.60;99.90;;;;;;5013352;28;20037;-63
2023/01/25 11:42:33;;;;;;;42.88;25.15;;;-0.60;99.90;;;;;;5018040;28;20116;-63
2023/01/25 11:45:20;;;;;;;43.05;24.27;;;-0.70;99.90;;;;;;5017099;28;20049;-63
2023/01/25 11:48:02;;;;;;;43.85;24.65;;;-0.70;99.90;;;;;;5017751;28;20611;-62
2023/01/25 11:50:46;;;;;;;40.20;25.05;;;-0.60;99.90;;;;;;5009700;28;20508;-63
2023/01/25 11:53:36;;;;;;;44.25;25.98;;;-0.60;99.90;;;;;;5015798;28;20022;-61
2023/01/25 11:56:17;;;;;;;43.10;24.85;;;-0.60;99.90;;;;;;5012601;28;20079;-60
2023/01/25 11:59:20;;;;;;;43.03;25.45;;;-0.60;99.90;;;;;;5019074;28;20025;-62
2023/01/25 12:02:05;;;;;;;36.58;23.85;;;-0.70;99.90;;;;;;5016161;28;20037;-61
2023/01/25 12:05:13;;;;;;;44.53;25.27;;;-0.70;99.90;;;;;;5016869;28;20429;-63
2023/01/25 12:07:47;;;;;;;37.38;24.02;;;-0.70;99.90;;;;;;5017843;28;20022;-63
2023/01/25 12:10:24;;;;;;;41.47;24.27;;;-0.70;99.90;;;;;;5018546;28;20014;-63
2023/01/25 12:13:15;;;;;;;43.42;25.27;;;-0.60;99.90;;;;;;5023075;28;20029;-63
2023/01/25 12:15:49;;;;;;;39.50;23.73;;;-0.60;99.90;;;;;;5022387;28;20484;-63
2023/01/25 12:18:29;;;;;;;43.83;24.85;;;-0.60;99.90;;;;;;5020973;28;20034;-63
2023/01/25 12:21:14;;;;;;;42.72;24.75;;;-0.60;99.90;;;;;;5021180;28;20022;-63
2023/01/25 12:24:15;;;;;;;39.75;24.38;;;-0.60;99.90;;;;;;5020368;28;20443;-63
2023/01/25 12:27:13;;;;;;;57.03;30.27;;;-0.70;99.90;;;;;;5021086;28;20030;-63
2023/01/25 12:29:44;;;;;;;67.57;36.40;;;-0.70;99.90;;;;;;4999844;28;20574;-63
2023/01/25 12:32:37;;;;;;;61.58;35.20;;;-0.60;99.90;;;;;;5021882;28;20488;-62
2023/01/25 12:35:27;;;;;;;51.88;29.23;;;-0.60;99.90;;;;;;5019088;28;20028;-63
2023/01/25 12:37:59;;;;;;;38.75;25.80;;;-0.60;99.90;;;;;;5022444;28;20040;-63
2023/01/25 12:40:49;;;;;;;45.63;26.63;;;-0.60;99.90;;;;;;5020249;28;20036;-62
2023/01/25 12:43:25;;;;;;;41.53;24.77;;;-0.70;99.90;;;;;;5020420;28;20097;-63
2023/01/25 12:45:52;;;;;;;44.55;26.98;;;-0.70;99.90;;;;;;5020544;28;20021;-62
2023/01/25 12:48:47;;;;;;;38.60;24.15;;;-0.70;99.90;;;;;;5021874;28;20022;-63